Time;durP1;ratioP1;P1;durP2;ratioP2;P2;SDS_P1;SDS_P2;PMS_P1;PMS_P2;Temp;Humidity;BMP_temperature;BMP_pressure;BME280_temperature;BME280_humidity;BME280_pressure;Samples;Min_cycle;Max_cycle;Signal;HPM_P1;HPM_P2
2022/05/04 00:00:52;;;;;;;34.97;18.17;;;18.30;54.70;;;;;;7373173;19;20133;-89
2022/05/04 00:03:21;;;;;;;31.77;16.92;;;18.20;54.70;;;;;;7374280;19;20023;-90
2022/05/04 00:05:50;;;;;;;31.90;17.90;;;18.20;54.70;;;;;;7371866;19;20415;-89
2022/05/04 00:08:19;;;;;;;34.47;18.88;;;18.20;54.90;;;;;;7377334;19;20038;-90
2022/05/04 00:10:47;;;;;;;32.30;18.70;;;18.20;54.90;;;;;;7395634;19;20028;-90
2022/05/04 00:13:16;;;;;;;30.92;18.40;;;18.20;54.90;;;;;;7377271;19;20031;-90
2022/05/04 00:15:47;;;;;;;35.78;17.85;;;18.10;54.90;;;;;;7399974;19;20007;-90
2022/05/04 00:18:16;;;;;;;34.83;18.35;;;18.20;55.00;;;;;;7396473;19;20007;-89
2022/05/04 00:20:45;;;;;;;30.25;18.05;;;18.00;54.90;;;;;;7389538;19;20010;-90
2022/05/04 00:23:14;;;;;;;30.85;17.92;;;18.10;55.10;;;;;;7381589;19;20011;-89
2022/05/04 00:25:43;;;;;;;38.95;19.02;;;18.00;55.00;;;;;;7399837;19;20007;-90
2022/05/04 00:28:11;;;;;;;36.33;18.10;;;18.00;55.10;;;;;;7375748;19;20071;-89
2022/05/04 00:30:40;;;;;;;33.20;19.17;;;17.90;55.20;;;;;;7377501;19;20062;-91
2022/05/04 00:33:12;;;;;;;33.47;19.08;;;17.80;55.50;;;;;;7381419;19;20011;-89
2022/05/04 00:35:41;;;;;;;35.85;20.92;;;17.70;55.70;;;;;;7374771;19;20043;-89
2022/05/04 00:38:10;;;;;;;41.80;22.15;;;17.80;55.70;;;;;;7374033;19;20014;-87
2022/05/04 00:40:38;;;;;;;35.90;21.35;;;17.70;55.70;;;;;;7395398;19;20074;-89
2022/05/04 00:43:21;;;;;;;33.78;18.35;;;17.80;55.80;;;;;;7372411;19;20040;-88
2022/05/04 00:45:49;;;;;;;36.97;19.42;;;17.80;55.70;;;;;;7372469;19;20035;-87
2022/05/04 00:48:21;;;;;;;35.78;19.27;;;17.80;55.70;;;;;;7371993;19;20078;-88
2022/05/04 00:50:51;;;;;;;36.05;19.90;;;17.70;55.80;;;;;;7370502;19;20014;-88
2022/05/04 00:53:22;;;;;;;31.23;18.33;;;17.70;55.80;;;;;;7371068;19;20021;-87
2022/05/04 00:55:52;;;;;;;32.63;18.20;;;17.70;55.80;;;;;;7393389;19;20018;-88
2022/05/04 01:01:02;;;;;;;;;;;17.90;55.50;;;;;;7375116;19;20018;-89
2022/05/04 01:03:34;;;;;;;37.88;19.48;;;18.00;55.40;;;;;;7372735;19;19926;-89
2022/05/04 01:06:06;;;;;;;37.85;18.35;;;17.80;55.20;;;;;;7375121;19;20011;-89
2022/05/04 01:08:34;;;;;;;37.00;20.33;;;17.80;55.30;;;;;;7381826;19;20117;-90
2022/05/04 01:11:03;;;;;;;35.53;20.77;;;17.80;55.30;;;;;;7399581;19;20384;-89
2022/05/04 01:13:33;;;;;;;34.35;20.60;;;17.80;55.30;;;;;;7376923;19;20022;-89
2022/05/04 01:16:02;;;;;;;37.28;20.45;;;17.70;55.40;;;;;;7378259;19;20019;-89
2022/05/04 01:18:30;;;;;;;36.72;20.17;;;17.70;55.50;;;;;;7377827;19;20117;-90
2022/05/04 01:21:02;;;;;;;36.00;20.17;;;17.60;55.60;;;;;;7379039;19;20368;-89
2022/05/04 01:23:33;;;;;;;39.47;20.33;;;17.60;55.60;;;;;;7379273;19;20132;-89
2022/05/04 01:26:02;;;;;;;36.05;20.95;;;17.50;55.80;;;;;;7398732;19;20101;-90
2022/05/04 01:28:30;;;;;;;39.63;20.92;;;17.50;55.80;;;;;;7376142;19;20183;-88
2022/05/04 01:30:59;;;;;;;38.50;20.77;;;17.60;55.80;;;;;;7376297;19;20051;-90
2022/05/04 01:33:28;;;;;;;35.85;20.25;;;17.50;55.90;;;;;;7376064;19;20111;-91
2022/05/04 01:35:57;;;;;;;35.38;19.88;;;17.50;56.00;;;;;;7375089;19;20018;-89
2022/05/04 01:38:25;;;;;;;39.28;20.45;;;17.40;56.20;;;;;;7375809;19;20082;-90
2022/05/04 01:40:56;;;;;;;36.53;20.77;;;17.40;56.20;;;;;;7398463;19;20581;-90
2022/05/04 01:43:26;;;;;;;32.78;19.38;;;17.40;56.30;;;;;;7376757;19;20653;-89
2022/05/04 01:45:54;;;;;;;38.10;21.35;;;17.50;56.20;;;;;;7381085;19;20078;-90
2022/05/04 01:48:23;;;;;;;35.88;20.80;;;17.50;56.10;;;;;;7376548;19;20015;-88
2022/05/04 01:50:52;;;;;;;37.05;21.38;;;17.50;56.00;;;;;;7377511;19;20019;-89
2022/05/04 01:53:21;;;;;;;41.67;20.70;;;17.50;55.80;;;;;;7380678;19;20141;-89
2022/05/04 01:55:51;;;;;;;40.20;21.13;;;17.50;55.80;;;;;;7401155;19;20514;-89
2022/05/04 01:58:22;;;;;;;41.28;20.95;;;17.50;55.80;;;;;;7380250;19;20113;-89
2022/05/04 02:00:51;;;;;;;32.97;19.75;;;17.60;55.70;;;;;;7378760;19;20023;-88
2022/05/04 02:03:20;;;;;;;39.70;21.00;;;17.70;55.60;;;;;;7375457;19;20023;-88
2022/05/04 02:05:49;;;;;;;46.88;20.92;;;17.40;55.70;;;;;;7378013;19;20330;-89
2022/05/04 02:08:17;;;;;;;36.28;21.38;;;17.30;56.10;;;;;;7381583;19;20031;-90
2022/05/04 02:10:47;;;;;;;33.92;20.65;;;17.40;56.10;;;;;;7406934;19;20014;-87
2022/05/04 02:13:16;;;;;;;37.67;21.45;;;17.40;56.00;;;;;;7380404;19;20022;-88
2022/05/04 02:15:47;;;;;;;35.22;20.40;;;17.40;56.10;;;;;;7379192;19;20062;-88
2022/05/04 02:18:16;;;;;;;36.53;20.50;;;17.40;56.10;;;;;;7378052;19;20026;-89
2022/05/04 02:20:44;;;;;;;33.80;19.90;;;17.50;56.00;;;;;;7380207;19;20411;-90
2022/05/04 02:23:13;;;;;;;36.70;21.35;;;17.50;55.90;;;;;;7380364;19;20047;-88
2022/05/04 02:25:42;;;;;;;34.75;19.65;;;17.50;55.70;;;;;;7397485;19;20035;-89
2022/05/04 02:28:11;;;;;;;39.75;20.75;;;17.50;55.80;;;;;;7377767;19;20014;-90
2022/05/04 02:30:39;;;;;;;33.75;19.90;;;17.50;55.70;;;;;;7378045;19;20018;-90
2022/05/04 02:33:10;;;;;;;33.92;19.50;;;17.50;55.70;;;;;;7377982;19;20132;-90
2022/05/04 02:38:21;;;;;;;40.78;19.85;;;17.60;55.80;;;;;;7376029;19;20014;-90
2022/05/04 02:40:50;;;;;;;36.22;20.30;;;17.60;56.00;;;;;;7395805;19;20017;-87
2022/05/04 02:43:19;;;;;;;34.60;20.05;;;17.50;56.00;;;;;;7372002;19;20015;-88
2022/05/04 02:45:48;;;;;;;35.28;19.55;;;17.40;56.10;;;;;;7373429;19;20653;-88
2022/05/04 02:48:19;;;;;;;37.33;20.13;;;17.40;56.30;;;;;;7374638;19;20074;-88
2022/05/04 02:50:48;;;;;;;36.65;19.90;;;17.40;56.50;;;;;;7373674;19;20021;-89
2022/05/04 02:53:16;;;;;;;36.40;19.92;;;17.40;56.50;;;;;;7372462;19;20042;-88
2022/05/04 02:55:45;;;;;;;37.97;20.90;;;17.50;56.40;;;;;;7394851;19;20015;-89
2022/05/04 02:58:14;;;;;;;37.78;20.00;;;17.40;56.20;;;;;;7373039;19;20018;-89
2022/05/04 03:00:42;;;;;;;41.20;19.80;;;17.40;56.30;;;;;;7373360;19;20018;-89
2022/05/04 03:03:08;;;;;;;35.13;20.15;;;17.40;56.20;;;;;;7372507;19;20058;-89
2022/05/04 03:05:40;;;;;;;33.80;20.50;;;17.40;56.30;;;;;;7372509;19;20022;-89
2022/05/04 03:08:09;;;;;;;37.97;21.15;;;17.40;56.50;;;;;;7378494;19;20082;-88
2022/05/04 03:13:19;;;;;;;40.63;21.52;;;17.40;56.80;;;;;;7373034;19;20044;-88
2022/05/04 03:15:48;;;;;;;35.85;20.80;;;17.40;56.80;;;;;;7370415;19;20490;-89
2022/05/04 03:18:20;;;;;;;40.67;21.23;;;17.30;56.90;;;;;;7371725;19;20332;-88
2022/05/04 03:20:51;;;;;;;39.88;21.48;;;17.30;57.00;;;;;;7372084;19;20094;-88
2022/05/04 03:23:20;;;;;;;41.92;20.58;;;17.30;56.90;;;;;;7372861;19;20031;-89
2022/05/04 03:25:49;;;;;;;37.75;21.27;;;17.30;56.90;;;;;;7392951;19;20043;-89
2022/05/04 03:28:17;;;;;;;41.78;22.00;;;17.30;57.00;;;;;;7372880;19;20723;-88
2022/05/04 03:30:46;;;;;;;44.80;21.35;;;17.20;56.90;;;;;;7370616;19;20014;-88
2022/05/04 03:33:15;;;;;;;42.70;22.38;;;17.20;57.10;;;;;;7374009;19;20009;-89
2022/05/04 03:35:43;;;;;;;40.75;21.95;;;17.20;57.10;;;;;;7391000;19;20086;-89
2022/05/04 03:38:15;;;;;;;42.22;22.90;;;17.20;57.70;;;;;;7404302;19;20010;-87
2022/05/04 03:40:43;;;;;;;42.05;21.77;;;17.20;57.00;;;;;;7424718;19;20013;-88
2022/05/04 03:43:12;;;;;;;39.05;21.20;;;17.10;57.00;;;;;;7397985;19;20006;-89
2022/05/04 03:45:41;;;;;;;47.42;22.52;;;17.10;57.10;;;;;;7373283;19;20458;-88
2022/05/04 03:48:11;;;;;;;42.05;22.25;;;17.00;57.00;;;;;;7373187;19;20325;-89
2022/05/04 03:50:39;;;;;;;43.10;21.83;;;17.10;57.10;;;;;;7371772;19;20018;-89
2022/05/04 03:53:08;;;;;;;39.72;22.73;;;17.10;57.20;;;;;;7380150;19;20093;-88
2022/05/04 03:55:42;;;;;;;45.45;22.58;;;17.00;57.20;;;;;;7393758;19;20018;-89
2022/05/04 03:58:10;;;;;;;40.72;23.17;;;16.90;57.30;;;;;;7370780;19;20052;-88
2022/05/04 04:00:39;;;;;;;44.58;23.38;;;16.80;57.30;;;;;;7371116;19;20090;-89
2022/05/04 04:03:08;;;;;;;42.75;21.85;;;16.70;57.60;;;;;;7371436;19;20456;-88
2022/05/04 04:05:37;;;;;;;39.63;22.73;;;16.70;57.70;;;;;;7370686;19;20010;-89
2022/05/04 04:08:06;;;;;;;42.58;22.58;;;16.70;57.70;;;;;;7395618;19;20021;-90
2022/05/04 04:10:34;;;;;;;43.85;23.00;;;16.70;57.70;;;;;;7375688;19;20018;-88
2022/05/04 04:13:06;;;;;;;41.20;22.60;;;16.60;57.70;;;;;;7385979;19;20074;-90
2022/05/04 04:15:35;;;;;;;44.78;23.88;;;16.60;57.90;;;;;;7396554;19;20011;-90
2022/05/04 04:18:04;;;;;;;43.45;22.67;;;16.60;58.00;;;;;;7399006;19;20015;-90
2022/05/04 04:23:14;;;;;;;51.35;23.02;;;16.60;57.90;;;;;;7387681;19;20014;-89
2022/05/04 04:25:43;;;;;;;45.85;23.25;;;16.70;58.50;;;;;;7403541;19;20029;-90
2022/05/04 04:28:14;;;;;;;43.58;23.85;;;16.70;57.80;;;;;;7379129;19;20014;-91
2022/05/04 04:30:43;;;;;;;46.22;24.27;;;16.70;57.70;;;;;;7383334;19;20014;-90
2022/05/04 04:33:12;;;;;;;42.33;23.60;;;16.70;57.90;;;;;;7379698;19;20010;-89
2022/05/04 04:35:41;;;;;;;48.40;24.30;;;16.60;57.70;;;;;;7381870;19;20010;-89
2022/05/04 04:38:09;;;;;;;44.75;24.60;;;16.50;57.80;;;;;;7386968;19;20022;-89
2022/05/04 04:40:39;;;;;;;45.40;24.23;;;16.50;57.90;;;;;;7403714;19;20019;-89
2022/05/04 04:43:08;;;;;;;47.65;23.75;;;16.50;58.10;;;;;;7383819;19;20830;-90
2022/05/04 04:45:39;;;;;;;44.83;24.70;;;16.50;58.20;;;;;;7384900;19;20018;-89
2022/05/04 04:48:08;;;;;;;45.63;24.42;;;16.40;58.10;;;;;;7387178;19;20106;-89
2022/05/04 04:50:37;;;;;;;47.03;24.80;;;16.40;58.10;;;;;;7389630;19;20035;-87
2022/05/04 04:53:06;;;;;;;47.22;24.75;;;16.30;58.30;;;;;;7400590;19;20015;-89
2022/05/04 04:55:39;;;;;;;47.03;25.23;;;16.10;58.40;;;;;;7375556;19;20051;-90
2022/05/04 04:58:07;;;;;;;49.75;27.65;;;16.20;58.50;;;;;;7373407;19;20031;-87
2022/05/04 05:00:39;;;;;;;48.35;26.55;;;16.10;58.70;;;;;;7373735;19;20014;-89
2022/05/04 05:03:08;;;;;;;56.90;32.45;;;16.10;58.70;;;;;;7381873;19;20014;-91
2022/05/04 05:05:37;;;;;;;56.40;31.52;;;16.10;58.70;;;;;;7375817;19;20031;-89
2022/05/04 05:08:06;;;;;;;52.03;27.48;;;16.10;58.60;;;;;;7392344;19;20336;-90
2022/05/04 05:10:35;;;;;;;52.13;24.48;;;16.20;58.60;;;;;;7376495;19;20350;-86
2022/05/04 05:13:04;;;;;;;46.03;24.88;;;16.10;58.40;;;;;;7366830;19;20021;-87
2022/05/04 05:18:17;;;;;;;48.63;24.38;;;16.10;59.00;;;;;;7366252;19;20031;-78
2022/05/04 05:20:46;;;;;;;47.28;24.58;;;16.10;58.80;;;;;;7362741;19;20182;-75
2022/05/04 05:23:15;;;;;;;45.78;24.65;;;16.10;58.70;;;;;;7365555;19;20073;-75
2022/05/04 05:25:43;;;;;;;43.72;22.98;;;16.20;58.50;;;;;;7386434;19;20015;-75
2022/05/04 05:28:15;;;;;;;45.05;23.63;;;16.30;58.50;;;;;;7366889;19;20059;-81
2022/05/04 05:30:44;;;;;;;40.75;23.05;;;16.30;58.30;;;;;;7368018;19;20643;-82
2022/05/04 05:33:13;;;;;;;47.13;24.25;;;16.30;58.20;;;;;;7365261;19;20019;-81
2022/05/04 05:35:44;;;;;;;65.35;34.10;;;16.30;58.20;;;;;;7364243;19;20082;-79
2022/05/04 05:38:13;;;;;;;48.10;25.60;;;16.30;58.20;;;;;;7365061;19;20090;-76
2022/05/04 05:40:42;;;;;;;47.53;26.73;;;16.40;58.00;;;;;;7387492;19;20022;-81
2022/05/04 05:43:11;;;;;;;44.65;25.05;;;16.40;58.70;;;;;;7365802;19;20082;-82
2022/05/04 05:45:39;;;;;;;45.80;23.52;;;16.50;58.10;;;;;;7365728;19;20018;-81
2022/05/04 05:48:09;;;;;;;47.22;25.13;;;16.50;57.90;;;;;;7365031;19;20079;-82
2022/05/04 05:50:38;;;;;;;45.25;24.58;;;16.50;57.80;;;;;;7363462;19;20031;-81
2022/05/04 05:53:14;;;;;;;48.72;25.17;;;16.50;57.70;;;;;;7388772;19;20082;-82
2022/05/04 05:55:43;;;;;;;48.20;24.52;;;16.50;57.80;;;;;;7370770;19;20018;-75
2022/05/04 05:58:12;;;;;;;49.67;25.90;;;16.60;57.60;;;;;;7370768;19;20446;-76
2022/05/04 06:00:41;;;;;;;45.42;25.20;;;16.60;57.60;;;;;;7371790;19;20014;-77
2022/05/04 06:03:09;;;;;;;45.72;24.48;;;16.50;57.60;;;;;;7370890;19;20081;-76
2022/05/04 06:05:38;;;;;;;50.28;24.85;;;16.50;57.60;;;;;;7371919;19;20101;-76
2022/05/04 06:08:10;;;;;;;44.38;24.33;;;16.60;57.50;;;;;;7389747;19;20019;-76
2022/05/04 06:10:40;;;;;;;47.85;24.42;;;16.60;57.50;;;;;;7370679;19;20766;-76
2022/05/04 06:13:09;;;;;;;44.78;24.52;;;16.60;57.20;;;;;;7368168;19;20017;-76
2022/05/04 06:15:37;;;;;;;49.75;24.92;;;16.60;57.20;;;;;;7369495;19;20010;-76
2022/05/04 06:18:07;;;;;;;50.22;26.10;;;16.50;57.40;;;;;;7370094;19;20021;-76
2022/05/04 06:20:36;;;;;;;48.28;25.30;;;16.50;57.40;;;;;;7371359;19;20014;-76
2022/05/04 06:23:04;;;;;;;47.10;25.08;;;16.50;57.50;;;;;;7391594;19;20015;-76
2022/05/04 06:25:36;;;;;;;45.05;25.35;;;16.40;57.60;;;;;;7370504;19;20041;-75
2022/05/04 06:28:05;;;;;;;49.33;24.95;;;16.40;57.70;;;;;;7370222;19;20162;-76
2022/05/04 06:35:56;;;;;;;46.25;24.48;;;16.60;57.40;;;;;;7370202;19;20585;-77
2022/05/04 06:38:25;;;;;;;47.50;24.85;;;16.70;57.20;;;;;;7369330;19;20023;-77
2022/05/04 06:40:57;;;;;;;47.70;25.02;;;16.70;57.20;;;;;;7391374;19;20111;-76
2022/05/04 06:43:26;;;;;;;50.55;25.35;;;16.60;57.20;;;;;;7367629;19;20015;-76
2022/05/04 06:45:54;;;;;;;60.35;25.17;;;16.60;57.20;;;;;;7370027;19;20014;-76
2022/05/04 06:48:23;;;;;;;47.78;24.95;;;16.50;57.10;;;;;;7370204;19;20019;-76
2022/05/04 06:50:52;;;;;;;50.85;25.25;;;16.50;57.40;;;;;;7367873;19;20015;-76
2022/05/04 06:53:20;;;;;;;49.08;24.77;;;16.50;57.40;;;;;;7367110;19;20098;-76
2022/05/04 06:55:49;;;;;;;48.25;24.27;;;16.40;57.30;;;;;;7390897;19;20082;-76
2022/05/04 06:58:21;;;;;;;49.28;25.80;;;16.40;57.20;;;;;;7368878;19;20007;-76
2022/05/04 07:00:49;;;;;;;47.97;23.95;;;16.40;57.90;;;;;;7368334;19;20014;-77
2022/05/04 07:03:19;;;;;;;58.05;24.73;;;16.40;57.40;;;;;;7365771;19;20050;-76
2022/05/04 07:05:48;;;;;;;52.70;25.83;;;16.40;57.40;;;;;;7367806;19;20021;-77
2022/05/04 07:08:18;;;;;;;46.58;24.70;;;16.40;57.40;;;;;;7368562;19;20102;-78
2022/05/04 07:10:47;;;;;;;48.28;25.35;;;16.40;57.50;;;;;;7387808;19;20015;-77
2022/05/04 07:13:15;;;;;;;50.33;26.42;;;16.30;57.50;;;;;;7367455;19;20010;-77
2022/05/04 07:15:47;;;;;;;45.40;24.65;;;16.40;57.50;;;;;;7368440;19;20081;-77
2022/05/04 07:18:15;;;;;;;;;;;16.40;58.10;;;;;;7368999;19;20089;-78
2022/05/04 07:20:44;;;;;;;55.22;26.75;;;16.50;57.30;;;;;;7367673;19;19921;-77
2022/05/04 07:23:13;;;;;;;51.15;26.33;;;16.60;57.20;;;;;;7365436;19;20014;-76
2022/05/04 07:25:41;;;;;;;52.75;24.70;;;16.60;57.30;;;;;;7387491;19;20022;-78
2022/05/04 07:28:10;;;;;;;51.08;25.23;;;16.70;57.30;;;;;;7364895;19;20021;-77
2022/05/04 07:30:39;;;;;;;58.28;26.23;;;16.70;57.20;;;;;;7365636;19;20014;-76
2022/05/04 07:33:10;;;;;;;54.50;23.30;;;16.80;56.90;;;;;;7367946;19;20106;-75
2022/05/04 07:35:39;;;;;;;47.10;24.67;;;16.90;56.80;;;;;;7368227;19;20339;-75
2022/05/04 07:38:08;;;;;;;48.75;24.90;;;17.00;56.50;;;;;;7382508;19;20093;-77
2022/05/04 07:43:18;;;;;;;51.30;25.92;;;17.10;56.30;;;;;;7366121;19;20018;-76
2022/05/04 07:45:46;;;;;;;52.53;24.73;;;17.10;56.10;;;;;;7365646;19;20079;-77
2022/05/04 07:48:18;;;;;;;47.72;26.10;;;17.20;56.00;;;;;;7366348;19;20011;-76
2022/05/04 07:50:46;;;;;;;50.15;24.75;;;17.20;56.00;;;;;;7367525;19;20485;-77
2022/05/04 07:53:15;;;;;;;45.92;25.35;;;17.30;56.20;;;;;;7366120;19;20082;-77
2022/05/04 07:55:44;;;;;;;50.28;24.33;;;17.20;56.00;;;;;;7388580;19;20472;-77
2022/05/04 07:58:12;;;;;;;48.67;25.95;;;17.30;56.20;;;;;;7367291;19;20121;-76
2022/05/04 08:06:21;;;;;;;45.85;24.73;;;17.20;55.90;;;;;;7361422;19;20093;-76
2022/05/04 08:08:50;;;;;;;49.97;25.13;;;17.30;56.00;;;;;;7363776;19;20025;-77
2022/05/04 08:11:19;;;;;;;49.17;24.48;;;17.20;55.90;;;;;;7365635;19;20011;-77
2022/05/04 08:13:48;;;;;;;50.75;25.88;;;17.30;56.10;;;;;;7384185;19;20023;-77
2022/05/04 08:16:16;;;;;;;53.20;25.50;;;17.40;56.10;;;;;;7365082;19;20435;-77
2022/05/04 08:18:48;;;;;;;55.42;27.85;;;17.40;55.90;;;;;;7363050;19;20514;-76
2022/05/04 08:21:17;;;;;;;;;;;17.40;55.80;;;;;;7365506;19;20018;-75
2022/05/04 08:23:45;;;;;;;52.60;26.77;;;17.40;56.00;;;;;;7361689;19;19915;-76
2022/05/04 08:26:14;;;;;;;48.45;25.38;;;17.40;56.00;;;;;;7362451;19;20033;-77
2022/05/04 08:28:43;;;;;;;48.67;26.42;;;17.50;56.10;;;;;;7386009;19;20019;-76
2022/05/04 08:31:12;;;;;;;56.45;27.35;;;17.50;55.80;;;;;;7363563;19;20455;-77
2022/05/04 08:33:40;;;;;;;54.78;27.88;;;17.60;55.60;;;;;;7361762;19;20472;-77
2022/05/04 08:36:12;;;;;;;59.35;26.98;;;17.50;55.50;;;;;;7362883;19;20536;-77
2022/05/04 08:38:41;;;;;;;53.20;26.20;;;17.50;55.60;;;;;;7363313;19;20089;-76
2022/05/04 08:41:10;;;;;;;53.38;27.55;;;17.50;55.60;;;;;;7363846;19;20070;-76
2022/05/04 08:43:40;;;;;;;56.28;27.30;;;17.60;55.90;;;;;;7387791;19;20106;-76
2022/05/04 08:46:15;;;;;;;52.55;26.48;;;17.70;55.60;;;;;;7364167;19;20596;-76
2022/05/04 08:48:45;;;;;;;58.40;27.05;;;17.70;55.80;;;;;;7368247;19;20102;-76
2022/05/04 08:51:18;;;;;;;89.57;52.22;;;17.70;55.40;;;;;;7364569;19;20014;-75
2022/05/04 08:53:47;;;;;;;57.88;31.70;;;17.70;55.90;;;;;;7364039;19;20078;-73
2022/05/04 08:56:16;;;;;;;53.45;28.90;;;17.70;55.20;;;;;;7365173;19;20099;-75
2022/05/04 09:05:29;;;;;;;49.95;26.58;;;18.00;55.10;;;;;;7362383;19;20378;-74
2022/05/04 09:08:18;;;;;;;49.25;26.45;;;18.00;55.10;;;;;;7384036;19;20064;-76
2022/05/04 09:10:52;;;;;;;61.80;26.88;;;18.20;55.20;;;;;;7362734;19;20474;-76
2022/05/04 09:13:27;;;;;;;48.00;27.05;;;18.30;55.00;;;;;;7356786;19;20034;-75
2022/05/04 09:21:58;;;;;;;53.67;26.95;;;18.40;54.50;;;;;;7353555;19;20007;-78
2022/05/04 09:24:35;;;;;;;52.22;26.55;;;18.30;54.40;;;;;;7364101;19;20451;-77
2022/05/04 09:27:13;;;;;;;55.45;25.73;;;18.20;54.90;;;;;;7363479;19;20363;-73
2022/05/04 09:29:45;;;;;;;49.83;25.48;;;18.20;54.70;;;;;;7366168;19;20010;-74
2022/05/04 09:32:15;;;;;;;49.00;22.52;;;18.10;54.20;;;;;;7372646;19;20439;-72
2022/05/04 09:34:44;;;;;;;46.83;19.75;;;18.20;54.30;;;;;;7390709;19;20022;-73
2022/05/04 09:45:34;;;;;;;45.55;22.90;;;19.00;52.30;;;;;;7370257;19;20046;-74
2022/05/04 09:48:03;;;;;;;38.08;19.95;;;19.10;51.80;;;;;;7372114;19;20101;-73
2022/05/04 09:50:32;;;;;;;36.85;20.23;;;19.00;52.00;;;;;;7370534;19;20324;-75
2022/05/04 09:53:02;;;;;;;33.03;17.13;;;19.10;52.50;;;;;;7391555;19;20021;-74
2022/05/04 09:55:34;;;;;;;27.10;13.52;;;19.10;51.90;;;;;;7371756;19;20014;-74
2022/05/04 09:58:03;;;;;;;;;;;19.20;51.00;;;;;;7371469;19;20115;-75
2022/05/04 10:00:35;;;;;;;31.85;15.85;;;19.30;50.90;;;;;;7371767;19;19918;-72
2022/05/04 10:03:07;;;;;;;29.58;15.75;;;19.20;50.40;;;;;;7368665;19;20010;-74
2022/05/04 10:05:37;;;;;;;26.63;13.75;;;19.10;50.20;;;;;;7369583;19;20146;-74
2022/05/04 10:08:08;;;;;;;20.45;11.10;;;19.10;50.30;;;;;;7389924;19;20018;-74
2022/05/04 10:10:42;;;;;;;21.75;11.07;;;19.10;50.40;;;;;;7371173;19;20085;-73
2022/05/04 10:13:13;;;;;;;22.55;11.55;;;19.10;50.20;;;;;;7368738;19;20751;-73
2022/05/04 10:15:45;;;;;;;23.65;12.77;;;19.20;50.00;;;;;;7371232;19;20046;-75
2022/05/04 10:18:34;;;;;;;25.38;15.00;;;19.20;49.90;;;;;;7369350;19;20010;-74
2022/05/04 10:21:19;;;;;;;28.20;13.45;;;19.20;50.10;;;;;;7368647;19;20062;-73
2022/05/04 10:24:00;;;;;;;24.15;12.35;;;19.30;50.40;;;;;;7357620;19;20033;-74
2022/05/04 10:26:47;;;;;;;26.80;12.23;;;19.40;49.60;;;;;;7368406;19;20428;-75
2022/05/04 10:32:36;;;;;;;29.52;14.13;;;19.60;49.30;;;;;;7369417;19;20111;-76
2022/05/04 10:35:25;;;;;;;23.45;12.43;;;19.80;48.50;;;;;;7389472;19;20586;-75
2022/05/04 10:38:07;;;;;;;22.55;11.25;;;19.70;48.40;;;;;;7368289;19;20006;-74
2022/05/04 10:40:38;;;;;;;36.55;19.77;;;19.70;48.50;;;;;;7367075;19;20018;-74
2022/05/04 10:43:12;;;;;;;38.28;22.25;;;19.70;48.50;;;;;;7368167;19;20027;-74
2022/05/04 10:45:42;;;;;;;44.10;25.55;;;19.70;48.60;;;;;;7370620;19;20084;-74
2022/05/04 10:48:30;;;;;;;42.38;24.98;;;19.80;49.00;;;;;;7372422;19;20130;-74
2022/05/04 10:51:07;;;;;;;28.92;14.13;;;19.80;48.20;;;;;;7370066;19;20082;-74
2022/05/04 10:53:44;;;;;;;29.92;16.10;;;19.90;48.00;;;;;;7370155;19;20011;-74
2022/05/04 10:56:15;;;;;;;32.33;16.50;;;19.90;48.60;;;;;;7370568;19;20105;-74
2022/05/04 10:58:57;;;;;;;25.05;13.90;;;19.90;48.30;;;;;;7389269;19;20022;-74
2022/05/04 11:01:27;;;;;;;26.75;13.23;;;19.70;48.00;;;;;;7369625;19;20014;-72
2022/05/04 11:04:15;;;;;;;21.30;11.65;;;19.70;48.30;;;;;;7368239;19;20090;-72
2022/05/04 11:06:46;;;;;;;26.52;14.13;;;19.70;48.70;;;;;;7368958;19;20474;-73
2022/05/04 11:09:16;;;;;;;28.67;11.83;;;19.70;48.10;;;;;;7369185;19;20513;-76
2022/05/04 11:11:46;;;;;;;21.98;11.63;;;19.50;48.30;;;;;;7370193;19;20439;-75
2022/05/04 11:14:18;;;;;;;20.85;10.15;;;19.60;48.70;;;;;;7368463;19;20177;-76
2022/05/04 11:16:48;;;;;;;20.52;9.32;;;19.60;49.00;;;;;;7390615;19;20349;-76
2022/05/04 11:19:17;;;;;;;23.10;9.65;;;19.70;49.00;;;;;;7366558;19;20037;-73
2022/05/04 11:21:47;;;;;;;21.60;9.13;;;19.80;47.60;;;;;;7369158;19;20418;-77
2022/05/04 11:24:17;;;;;;;18.33;8.65;;;19.90;47.10;;;;;;7367899;19;20018;-76
2022/05/04 11:26:47;;;;;;;18.27;9.18;;;20.00;46.80;;;;;;7370674;19;20031;-78
2022/05/04 11:29:21;;;;;;;26.52;9.13;;;19.90;47.20;;;;;;7371497;19;20337;-77
2022/05/04 11:31:54;;;;;;;12.48;7.93;;;20.00;48.50;;;;;;7390029;19;20019;-77
2022/05/04 11:34:24;;;;;;;15.85;6.40;;;20.10;47.20;;;;;;7368560;19;20019;-80
2022/05/04 11:36:54;;;;;;;9.65;5.65;;;20.20;45.80;;;;;;7368062;19;20035;-77
2022/05/04 11:39:25;;;;;;;8.60;4.10;;;20.30;44.90;;;;;;7367344;19;20093;-87
2022/05/04 11:41:56;;;;;;;32.53;17.15;;;20.30;44.50;;;;;;7374465;19;20014;-85
2022/05/04 11:44:29;;;;;;;41.03;22.40;;;20.20;44.60;;;;;;7376179;19;20027;-84
2022/05/04 11:46:59;;;;;;;18.48;11.05;;;20.30;44.60;;;;;;7396812;19;20035;-79
2022/05/04 11:49:32;;;;;;;16.38;6.43;;;20.40;44.80;;;;;;7388865;19;20014;-80
2022/05/04 11:52:02;;;;;;;13.00;5.90;;;20.50;44.80;;;;;;7370270;19;20034;-82
2022/05/04 11:54:31;;;;;;;10.65;5.70;;;20.60;44.80;;;;;;7369724;19;20010;-82
2022/05/04 11:57:00;;;;;;;13.43;5.78;;;20.80;44.10;;;;;;7369267;19;20317;-82
2022/05/04 11:59:35;;;;;;;11.75;6.80;;;21.00;43.80;;;;;;7370541;19;20010;-81
2022/05/04 12:02:03;;;;;;;15.68;6.82;;;21.20;44.10;;;;;;7391496;19;20346;-81
2022/05/04 12:04:33;;;;;;;14.10;6.75;;;21.30;43.00;;;;;;7369492;19;20023;-81
2022/05/04 12:07:02;;;;;;;15.63;6.32;;;21.30;41.80;;;;;;7370870;19;20114;-81
2022/05/04 12:09:31;;;;;;;12.20;5.82;;;21.20;41.80;;;;;;7373241;19;20079;-81
2022/05/04 12:12:00;;;;;;;10.82;5.93;;;21.20;42.30;;;;;;7372158;19;20078;-81
2022/05/04 12:14:30;;;;;;;14.65;5.80;;;21.00;41.80;;;;;;7369433;19;20008;-81
2022/05/04 12:17:01;;;;;;;12.43;6.75;;;21.00;42.30;;;;;;7391024;19;20026;-81
2022/05/04 12:19:31;;;;;;;15.23;6.55;;;20.80;43.20;;;;;;7369313;19;20034;-81
2022/05/04 12:22:04;;;;;;;14.65;5.53;;;20.80;43.60;;;;;;7369680;19;20074;-81
2022/05/04 12:24:34;;;;;;;10.63;5.05;;;21.00;43.90;;;;;;7371952;19;20296;-81
2022/05/04 12:27:03;;;;;;;9.73;5.00;;;21.00;43.20;;;;;;7375840;19;20026;-81
2022/05/04 12:34:59;;;;;;;8.70;4.95;;;21.20;42.70;;;;;;7396208;19;20053;-80
2022/05/04 12:37:33;;;;;;;12.63;4.90;;;21.00;43.20;;;;;;7369499;19;20031;-81
2022/05/04 12:40:03;;;;;;;12.32;4.70;;;21.00;42.90;;;;;;7369500;19;20011;-81
2022/05/04 12:42:33;;;;;;;12.73;5.72;;;21.10;43.30;;;;;;7369894;19;20095;-80
2022/05/04 12:45:02;;;;;;;11.65;5.25;;;21.10;42.50;;;;;;7368989;19;20018;-81
2022/05/04 12:47:34;;;;;;;12.00;5.38;;;21.20;43.10;;;;;;7369444;19;20423;-81
2022/05/04 12:50:04;;;;;;;12.85;5.30;;;20.90;42.90;;;;;;7388178;19;20074;-81
2022/05/04 12:52:33;;;;;;;10.32;4.10;;;20.90;42.90;;;;;;7376449;19;20014;-81
2022/05/04 12:55:01;;;;;;;9.25;4.47;;;20.90;43.10;;;;;;7368068;19;20031;-81
2022/05/04 12:57:30;;;;;;;10.75;5.00;;;21.00;43.40;;;;;;7370774;19;20399;-81
2022/05/04 12:59:59;;;;;;;5.80;4.05;;;21.20;42.80;;;;;;7374945;19;20014;-81
2022/05/04 13:02:29;;;;;;;8.82;4.20;;;21.40;42.90;;;;;;7372469;19;20087;-81
2022/05/04 13:05:00;;;;;;;6.15;4.30;;;21.40;41.70;;;;;;7397574;19;20015;-81
2022/05/04 13:07:29;;;;;;;;;;;21.40;42.30;;;;;;7374565;19;20015;-81
2022/05/04 13:09:58;;;;;;;8.55;4.30;;;21.40;42.30;;;;;;7374275;19;19922;-82
2022/05/04 13:12:26;;;;;;;4.68;3.70;;;21.60;42.80;;;;;;7373443;19;20011;-82
2022/05/04 13:14:55;;;;;;;8.07;3.88;;;21.80;43.00;;;;;;7371286;19;20039;-81
2022/05/04 13:17:24;;;;;;;8.43;3.88;;;21.90;42.50;;;;;;7374372;19;20621;-81
2022/05/04 13:19:53;;;;;;;8.70;3.85;;;22.10;42.20;;;;;;7396257;19;20014;-81
2022/05/04 13:22:24;;;;;;;4.82;3.35;;;22.00;41.00;;;;;;7380755;19;20114;-81
2022/05/04 13:24:54;;;;;;;6.38;3.72;;;22.10;41.00;;;;;;7373622;19;20012;-81
2022/05/04 13:27:22;;;;;;;6.22;3.10;;;22.10;40.70;;;;;;7374530;19;20019;-82
2022/05/04 13:29:51;;;;;;;5.53;3.20;;;22.10;40.40;;;;;;7375255;19;20082;-81
2022/05/04 13:32:20;;;;;;;3.65;2.80;;;22.00;40.60;;;;;;7369817;19;20011;-81
2022/05/04 13:34:49;;;;;;;3.58;2.45;;;22.00;40.70;;;;;;7393618;19;20122;-81
2022/05/04 13:37:17;;;;;;;3.67;2.55;;;22.00;38.90;;;;;;7372645;19;20565;-81
2022/05/04 13:39:49;;;;;;;6.22;2.40;;;22.10;38.70;;;;;;7374696;19;20011;-81
2022/05/04 13:42:18;;;;;;;7.40;2.20;;;22.10;38.10;;;;;;7376036;19;20034;-81